sensor_id;sensor_type;location;lat;lon;timestamp;temperature;humidity
52895;DHT22;38759;53.396;6.722;2024-03-08T00:02:37;2.80;99.90
52895;DHT22;38759;53.396;6.722;2024-03-08T00:05:05;2.80;99.90
52895;DHT22;38759;53.396;6.722;2024-03-08T00:07:30;2.70;99.90
52895;DHT22;38759;53.396;6.722;2024-03-08T00:09:56;2.70;99.90
52895;DHT22;38759;53.396;6.722;2024-03-08T00:12:22;2.70;99.90
52895;DHT22;38759;53.396;6.722;2024-03-08T00:14:48;2.70;99.90
52895;DHT22;38759;53.396;6.722;2024-03-08T00:17:14;2.70;99.90
52895;DHT22;38759;53.396;6.722;2024-03-08T00:19:41;2.60;99.90
52895;DHT22;38759;53.396;6.722;2024-03-08T00:22:07;2.60;99.90
52895;DHT22;38759;53.396;6.722;2024-03-08T00:24:33;2.60;99.90
52895;DHT22;38759;53.396;6.722;2024-03-08T00:26:59;2.60;99.90
52895;DHT22;38759;53.396;6.722;2024-03-08T00:29:24;2.60;99.90
52895;DHT22;38759;53.396;6.722;2024-03-08T00:31:50;2.60;99.90
52895;DHT22;38759;53.396;6.722;2024-03-08T00:34:16;2.60;99.90
52895;DHT22;38759;53.396;6.722;2024-03-08T00:36:41;2.60;99.90
52895;DHT22;38759;53.396;6.722;2024-03-08T00:39:07;2.50;99.90
52895;DHT22;38759;53.396;6.722;2024-03-08T00:41:37;2.50;99.90
52895;DHT22;38759;53.396;6.722;2024-03-08T00:44:02;2.50;99.90
52895;DHT22;38759;53.396;6.722;2024-03-08T00:46:30;2.50;99.90
52895;DHT22;38759;53.396;6.722;2024-03-08T00:48:57;2.50;99.90
52895;DHT22;38759;53.396;6.722;2024-03-08T00:51:22;2.50;99.90
52895;DHT22;38759;53.396;6.722;2024-03-08T00:53:48;2.50;99.90
52895;DHT22;38759;53.396;6.722;2024-03-08T00:56:14;2.40;99.90
52895;DHT22;38759;53.396;6.722;2024-03-08T00:58:39;2.40;99.90
52895;DHT22;38759;53.396;6.722;2024-03-08T01:01:05;2.40;99.90
52895;DHT22;38759;53.396;6.722;2024-03-08T01:03:31;2.40;99.90
52895;DHT22;38759;53.396;6.722;2024-03-08T01:05:57;2.40;99.90
52895;DHT22;38759;53.396;6.722;2024-03-08T01:08:23;2.40;99.90
52895;DHT22;38759;53.396;6.722;2024-03-08T01:10:49;2.50;99.90
52895;DHT22;38759;53.396;6.722;2024-03-08T01:13:16;2.30;99.90
52895;DHT22;38759;53.396;6.722;2024-03-08T01:15:42;2.30;99.90
52895;DHT22;38759;53.396;6.722;2024-03-08T01:18:07;2.30;99.90
52895;DHT22;38759;53.396;6.722;2024-03-08T01:20:33;2.20;99.90
52895;DHT22;38759;53.396;6.722;2024-03-08T01:22:59;2.20;99.90
52895;DHT22;38759;53.396;6.722;2024-03-08T01:25:24;2.20;99.90
52895;DHT22;38759;53.396;6.722;2024-03-08T01:27:50;2.20;99.90
52895;DHT22;38759;53.396;6.722;2024-03-08T01:30:16;2.10;99.90
52895;DHT22;38759;53.396;6.722;2024-03-08T01:32:43;2.10;99.90
52895;DHT22;38759;53.396;6.722;2024-03-08T01:35:09;2.10;99.90
52895;DHT22;38759;53.396;6.722;2024-03-08T01:37:36;2.10;99.90
52895;DHT22;38759;53.396;6.722;2024-03-08T01:40:01;2.10;99.90
52895;DHT22;38759;53.396;6.722;2024-03-08T01:42:29;2.00;99.90
52895;DHT22;38759;53.396;6.722;2024-03-08T01:44:54;2.00;99.90
52895;DHT22;38759;53.396;6.722;2024-03-08T01:47:21;2.00;99.90
52895;DHT22;38759;53.396;6.722;2024-03-08T01:49:50;2.10;99.90
52895;DHT22;38759;53.396;6.722;2024-03-08T01:52:17;2.00;99.90
52895;DHT22;38759;53.396;6.722;2024-03-08T01:54:46;2.00;99.90
52895;DHT22;38759;53.396;6.722;2024-03-08T01:57:12;2.00;99.90
52895;DHT22;38759;53.396;6.722;2024-03-08T01:59:39;2.00;99.90
52895;DHT22;38759;53.396;6.722;2024-03-08T02:02:06;2.00;99.90
52895;DHT22;38759;53.396;6.722;2024-03-08T02:04:34;2.00;99.90
52895;DHT22;38759;53.396;6.722;2024-03-08T02:07:01;1.90;99.90
52895;DHT22;38759;53.396;6.722;2024-03-08T02:09:30;2.00;99.90
52895;DHT22;38759;53.396;6.722;2024-03-08T02:11:56;2.00;99.90
52895;DHT22;38759;53.396;6.722;2024-03-08T02:14:22;1.90;99.90
52895;DHT22;38759;53.396;6.722;2024-03-08T02:16:49;2.00;99.90
52895;DHT22;38759;53.396;6.722;2024-03-08T02:19:16;1.80;99.90
52895;DHT22;38759;53.396;6.722;2024-03-08T02:21:42;1.80;99.90
52895;DHT22;38759;53.396;6.722;2024-03-08T02:24:09;1.80;99.90
52895;DHT22;38759;53.396;6.722;2024-03-08T02:26:35;1.80;99.90
52895;DHT22;38759;53.396;6.722;2024-03-08T02:29:01;1.80;99.90
52895;DHT22;38759;53.396;6.722;2024-03-08T02:31:27;1.70;99.90
52895;DHT22;38759;53.396;6.722;2024-03-08T02:33:53;1.80;99.90
52895;DHT22;38759;53.396;6.722;2024-03-08T02:36:18;1.70;99.90
52895;DHT22;38759;53.396;6.722;2024-03-08T02:38:44;1.70;99.90
52895;DHT22;38759;53.396;6.722;2024-03-08T02:41:10;1.70;99.90
52895;DHT22;38759;53.396;6.722;2024-03-08T02:43:36;1.70;99.90
52895;DHT22;38759;53.396;6.722;2024-03-08T02:46:01;1.70;99.90
52895;DHT22;38759;53.396;6.722;2024-03-08T02:48:27;1.60;99.90
52895;DHT22;38759;53.396;6.722;2024-03-08T02:50:53;1.70;99.90
52895;DHT22;38759;53.396;6.722;2024-03-08T02:53:19;1.60;99.90
52895;DHT22;38759;53.396;6.722;2024-03-08T02:55:44;1.60;99.90
52895;DHT22;38759;53.396;6.722;2024-03-08T02:58:10;1.60;99.90
52895;DHT22;38759;53.396;6.722;2024-03-08T03:00:42;1.50;99.90
52895;DHT22;38759;53.396;6.722;2024-03-08T03:03:09;1.50;99.90
52895;DHT22;38759;53.396;6.722;2024-03-08T03:05:35;1.50;99.90
52895;DHT22;38759;53.396;6.722;2024-03-08T03:08:01;1.60;99.90
52895;DHT22;38759;53.396;6.722;2024-03-08T03:10:27;1.50;99.90
52895;DHT22;38759;53.396;6.722;2024-03-08T03:12:52;1.50;99.90
52895;DHT22;38759;53.396;6.722;2024-03-08T03:15:18;1.50;99.90
52895;DHT22;38759;53.396;6.722;2024-03-08T03:17:48;1.40;99.90
52895;DHT22;38759;53.396;6.722;2024-03-08T03:20:16;1.40;99.90
52895;DHT22;38759;53.396;6.722;2024-03-08T03:22:49;1.40;99.90
52895;DHT22;38759;53.396;6.722;2024-03-08T03:25:21;1.50;99.90
52895;DHT22;38759;53.396;6.722;2024-03-08T03:27:52;1.40;99.90
52895;DHT22;38759;53.396;6.722;2024-03-08T03:30:18;1.40;99.90
52895;DHT22;38759;53.396;6.722;2024-03-08T03:32:49;1.40;99.90
52895;DHT22;38759;53.396;6.722;2024-03-08T03:35:22;1.30;99.90
52895;DHT22;38759;53.396;6.722;2024-03-08T03:37:48;1.40;99.90
52895;DHT22;38759;53.396;6.722;2024-03-08T03:40:29;1.30;99.90
52895;DHT22;38759;53.396;6.722;2024-03-08T03:42:56;1.30;99.90
52895;DHT22;38759;53.396;6.722;2024-03-08T03:45:23;1.30;99.90
52895;DHT22;38759;53.396;6.722;2024-03-08T03:47:49;1.30;99.90
52895;DHT22;38759;53.396;6.722;2024-03-08T03:50:15;1.30;99.90
52895;DHT22;38759;53.396;6.722;2024-03-08T03:52:40;1.30;99.90
52895;DHT22;38759;53.396;6.722;2024-03-08T03:55:08;1.30;99.90
52895;DHT22;38759;53.396;6.722;2024-03-08T03:57:34;1.30;99.90
52895;DHT22;38759;53.396;6.722;2024-03-08T03:59:59;1.20;99.90
52895;DHT22;38759;53.396;6.722;2024-03-08T04:02:28;1.30;99.90
52895;DHT22;38759;53.396;6.722;2024-03-08T04:04:53;1.20;99.90
52895;DHT22;38759;53.396;6.722;2024-03-08T04:07:20;1.20;99.90
52895;DHT22;38759;53.396;6.722;2024-03-08T04:09:46;1.20;99.90
52895;DHT22;38759;53.396;6.722;2024-03-08T04:12:12;1.20;99.90
52895;DHT22;38759;53.396;6.722;2024-03-08T04:14:40;1.20;99.90
52895;DHT22;38759;53.396;6.722;2024-03-08T04:17:06;1.20;99.90
52895;DHT22;38759;53.396;6.722;2024-03-08T04:19:34;1.20;99.90
52895;DHT22;38759;53.396;6.722;2024-03-08T04:22:00;1.20;99.90
52895;DHT22;38759;53.396;6.722;2024-03-08T04:24:26;1.20;99.90
52895;DHT22;38759;53.396;6.722;2024-03-08T04:26:52;1.20;99.90
52895;DHT22;38759;53.396;6.722;2024-03-08T04:29:18;1.10;99.90
52895;DHT22;38759;53.396;6.722;2024-03-08T04:31:44;1.10;99.90
52895;DHT22;38759;53.396;6.722;2024-03-08T04:34:10;1.10;99.90
52895;DHT22;38759;53.396;6.722;2024-03-08T04:36:36;1.10;99.90
52895;DHT22;38759;53.396;6.722;2024-03-08T04:39:02;1.10;99.90
52895;DHT22;38759;53.396;6.722;2024-03-08T04:41:28;1.00;99.90
52895;DHT22;38759;53.396;6.722;2024-03-08T04:43:56;1.00;99.90
52895;DHT22;38759;53.396;6.722;2024-03-08T04:46:23;1.00;99.90
52895;DHT22;38759;53.396;6.722;2024-03-08T04:48:49;1.00;99.90
52895;DHT22;38759;53.396;6.722;2024-03-08T04:51:15;1.00;99.90
52895;DHT22;38759;53.396;6.722;2024-03-08T04:53:41;1.00;99.90
52895;DHT22;38759;53.396;6.722;2024-03-08T04:56:07;1.00;99.90
52895;DHT22;38759;53.396;6.722;2024-03-08T04:58:35;1.00;99.90
52895;DHT22;38759;53.396;6.722;2024-03-08T05:01:01;1.00;99.90
52895;DHT22;38759;53.396;6.722;2024-03-08T05:03:27;1.00;99.90
52895;DHT22;38759;53.396;6.722;2024-03-08T05:05:54;0.90;99.90
52895;DHT22;38759;53.396;6.722;2024-03-08T05:08:19;0.90;99.90
52895;DHT22;38759;53.396;6.722;2024-03-08T05:10:45;0.90;99.90
52895;DHT22;38759;53.396;6.722;2024-03-08T05:13:12;0.90;99.90
52895;DHT22;38759;53.396;6.722;2024-03-08T05:15:38;0.90;99.90
52895;DHT22;38759;53.396;6.722;2024-03-08T05:18:05;0.90;99.90
52895;DHT22;38759;53.396;6.722;2024-03-08T05:20:31;0.80;99.90
52895;DHT22;38759;53.396;6.722;2024-03-08T05:22:57;0.90;99.90
52895;DHT22;38759;53.396;6.722;2024-03-08T05:25:26;0.90;99.90
52895;DHT22;38759;53.396;6.722;2024-03-08T05:27:52;0.90;99.90
52895;DHT22;38759;53.396;6.722;2024-03-08T05:30:18;0.90;99.90
52895;DHT22;38759;53.396;6.722;2024-03-08T05:32:44;0.90;99.90
52895;DHT22;38759;53.396;6.722;2024-03-08T05:35:11;0.90;99.90
52895;DHT22;38759;53.396;6.722;2024-03-08T05:37:38;1.00;99.90
52895;DHT22;38759;53.396;6.722;2024-03-08T05:40:05;0.90;99.90
52895;DHT22;38759;53.396;6.722;2024-03-08T05:42:37;0.90;99.90
52895;DHT22;38759;53.396;6.722;2024-03-08T05:45:04;0.90;99.90
52895;DHT22;38759;53.396;6.722;2024-03-08T05:47:32;0.90;99.90
52895;DHT22;38759;53.396;6.722;2024-03-08T05:49:58;1.00;99.90
52895;DHT22;38759;53.396;6.722;2024-03-08T05:52:24;0.90;99.90
52895;DHT22;38759;53.396;6.722;2024-03-08T05:54:51;0.90;99.90
52895;DHT22;38759;53.396;6.722;2024-03-08T05:57:17;0.90;99.90
52895;DHT22;38759;53.396;6.722;2024-03-08T05:59:43;1.00;99.90
52895;DHT22;38759;53.396;6.722;2024-03-08T06:02:09;0.90;99.90
52895;DHT22;38759;53.396;6.722;2024-03-08T06:04:34;0.90;99.90
52895;DHT22;38759;53.396;6.722;2024-03-08T06:07:00;0.80;99.90
52895;DHT22;38759;53.396;6.722;2024-03-08T06:09:28;0.90;99.90
52895;DHT22;38759;53.396;6.722;2024-03-08T06:11:54;0.90;99.90
52895;DHT22;38759;53.396;6.722;2024-03-08T06:14:20;0.80;99.90
52895;DHT22;38759;53.396;6.722;2024-03-08T06:16:47;0.80;99.90
52895;DHT22;38759;53.396;6.722;2024-03-08T06:19:13;0.90;99.90
52895;DHT22;38759;53.396;6.722;2024-03-08T06:21:39;0.80;99.90
52895;DHT22;38759;53.396;6.722;2024-03-08T06:24:05;0.80;99.90
52895;DHT22;38759;53.396;6.722;2024-03-08T06:26:31;0.90;99.90
52895;DHT22;38759;53.396;6.722;2024-03-08T06:28:57;0.90;99.90
52895;DHT22;38759;53.396;6.722;2024-03-08T06:31:23;0.80;99.90
52895;DHT22;38759;53.396;6.722;2024-03-08T06:33:49;0.90;99.90
52895;DHT22;38759;53.396;6.722;2024-03-08T06:36:18;0.90;99.90
52895;DHT22;38759;53.396;6.722;2024-03-08T06:38:50;0.90;99.90
52895;DHT22;38759;53.396;6.722;2024-03-08T06:41:16;0.90;99.90
52895;DHT22;38759;53.396;6.722;2024-03-08T06:43:46;0.90;99.90
52895;DHT22;38759;53.396;6.722;2024-03-08T06:46:12;0.90;99.90
52895;DHT22;38759;53.396;6.722;2024-03-08T06:48:39;0.90;99.90
52895;DHT22;38759;53.396;6.722;2024-03-08T06:51:05;1.00;99.90
52895;DHT22;38759;53.396;6.722;2024-03-08T06:53:31;1.00;99.90
52895;DHT22;38759;53.396;6.722;2024-03-08T06:55:57;1.00;99.90
52895;DHT22;38759;53.396;6.722;2024-03-08T06:58:23;1.10;99.90
52895;DHT22;38759;53.396;6.722;2024-03-08T07:00:49;1.10;99.90
52895;DHT22;38759;53.396;6.722;2024-03-08T07:03:18;1.30;99.90
52895;DHT22;38759;53.396;6.722;2024-03-08T07:05:44;1.40;99.90
52895;DHT22;38759;53.396;6.722;2024-03-08T07:08:10;1.50;99.90
52895;DHT22;38759;53.396;6.722;2024-03-08T07:10:36;1.50;99.90
52895;DHT22;38759;53.396;6.722;2024-03-08T07:13:03;1.50;99.90
52895;DHT22;38759;53.396;6.722;2024-03-08T07:15:28;1.60;99.90
52895;DHT22;38759;53.396;6.722;2024-03-08T07:17:54;1.60;99.90
52895;DHT22;38759;53.396;6.722;2024-03-08T07:20:21;1.60;99.90
52895;DHT22;38759;53.396;6.722;2024-03-08T07:22:47;1.60;99.90
52895;DHT22;38759;53.396;6.722;2024-03-08T07:25:14;1.60;99.90
52895;DHT22;38759;53.396;6.722;2024-03-08T07:27:55;1.70;99.90
52895;DHT22;38759;53.396;6.722;2024-03-08T07:30:26;1.60;99.90
52895;DHT22;38759;53.396;6.722;2024-03-08T07:33:11;1.70;99.90
52895;DHT22;38759;53.396;6.722;2024-03-08T07:35:39;1.70;99.90
52895;DHT22;38759;53.396;6.722;2024-03-08T07:38:06;1.70;99.90
52895;DHT22;38759;53.396;6.722;2024-03-08T07:40:40;1.70;99.90
52895;DHT22;38759;53.396;6.722;2024-03-08T07:43:09;1.80;99.90
52895;DHT22;38759;53.396;6.722;2024-03-08T07:45:36;1.80;99.90
52895;DHT22;38759;53.396;6.722;2024-03-08T07:48:03;1.80;99.90
52895;DHT22;38759;53.396;6.722;2024-03-08T07:50:29;1.60;99.90
52895;DHT22;38759;53.396;6.722;2024-03-08T07:52:55;1.90;99.90
52895;DHT22;38759;53.396;6.722;2024-03-08T07:55:20;1.80;99.90
52895;DHT22;38759;53.396;6.722;2024-03-08T07:57:49;1.90;99.90
52895;DHT22;38759;53.396;6.722;2024-03-08T08:00:16;1.90;99.90
52895;DHT22;38759;53.396;6.722;2024-03-08T08:02:45;1.90;99.90
52895;DHT22;38759;53.396;6.722;2024-03-08T08:05:11;1.90;99.90
52895;DHT22;38759;53.396;6.722;2024-03-08T08:07:37;1.90;99.90
52895;DHT22;38759;53.396;6.722;2024-03-08T08:10:03;2.00;99.90
52895;DHT22;38759;53.396;6.722;2024-03-08T08:12:31;2.00;99.90
52895;DHT22;38759;53.396;6.722;2024-03-08T08:14:59;2.00;99.90
52895;DHT22;38759;53.396;6.722;2024-03-08T08:17:25;2.10;99.90
52895;DHT22;38759;53.396;6.722;2024-03-08T08:19:51;2.10;99.90
52895;DHT22;38759;53.396;6.722;2024-03-08T08:22:17;2.20;99.90
52895;DHT22;38759;53.396;6.722;2024-03-08T08:24:43;2.20;99.90
52895;DHT22;38759;53.396;6.722;2024-03-08T08:27:12;2.30;99.90
52895;DHT22;38759;53.396;6.722;2024-03-08T08:29:38;2.30;99.90
52895;DHT22;38759;53.396;6.722;2024-03-08T08:32:04;2.30;99.90
52895;DHT22;38759;53.396;6.722;2024-03-08T08:34:29;2.40;99.90
52895;DHT22;38759;53.396;6.722;2024-03-08T08:36:56;2.40;99.90
52895;DHT22;38759;53.396;6.722;2024-03-08T08:39:22;2.50;99.90
52895;DHT22;38759;53.396;6.722;2024-03-08T08:41:48;2.50;99.90
52895;DHT22;38759;53.396;6.722;2024-03-08T08:44:14;2.50;99.90
52895;DHT22;38759;53.396;6.722;2024-03-08T08:46:40;2.50;99.90
52895;DHT22;38759;53.396;6.722;2024-03-08T08:49:06;2.60;99.90
52895;DHT22;38759;53.396;6.722;2024-03-08T08:51:36;2.60;99.90
52895;DHT22;38759;53.396;6.722;2024-03-08T08:54:02;2.70;99.90
52895;DHT22;38759;53.396;6.722;2024-03-08T08:56:28;2.70;99.90
52895;DHT22;38759;53.396;6.722;2024-03-08T08:58:54;2.80;99.90
52895;DHT22;38759;53.396;6.722;2024-03-08T09:01:20;2.80;99.90
52895;DHT22;38759;53.396;6.722;2024-03-08T09:03:46;2.80;99.90
52895;DHT22;38759;53.396;6.722;2024-03-08T09:06:16;2.90;99.90
52895;DHT22;38759;53.396;6.722;2024-03-08T09:08:42;2.90;99.90
52895;DHT22;38759;53.396;6.722;2024-03-08T09:11:09;3.00;99.90
52895;DHT22;38759;53.396;6.722;2024-03-08T09:13:35;3.00;99.90
52895;DHT22;38759;53.396;6.722;2024-03-08T09:16:02;3.00;99.90
52895;DHT22;38759;53.396;6.722;2024-03-08T09:18:31;3.10;99.90
52895;DHT22;38759;53.396;6.722;2024-03-08T09:20:58;3.10;99.90
52895;DHT22;38759;53.396;6.722;2024-03-08T09:23:23;3.20;99.90
52895;DHT22;38759;53.396;6.722;2024-03-08T09:25:51;3.20;99.90
52895;DHT22;38759;53.396;6.722;2024-03-08T09:28:17;3.20;99.90
52895;DHT22;38759;53.396;6.722;2024-03-08T09:30:42;3.30;99.90
52895;DHT22;38759;53.396;6.722;2024-03-08T09:33:10;3.40;99.90
52895;DHT22;38759;53.396;6.722;2024-03-08T09:35:37;3.40;99.90
52895;DHT22;38759;53.396;6.722;2024-03-08T09:38:02;3.50;99.90
52895;DHT22;38759;53.396;6.722;2024-03-08T09:40:30;3.50;99.90
52895;DHT22;38759;53.396;6.722;2024-03-08T09:42:55;3.60;99.90
52895;DHT22;38759;53.396;6.722;2024-03-08T09:45:23;3.60;99.90
52895;DHT22;38759;53.396;6.722;2024-03-08T09:47:50;3.70;99.90
52895;DHT22;38759;53.396;6.722;2024-03-08T09:50:16;3.70;99.90
52895;DHT22;38759;53.396;6.722;2024-03-08T09:52:46;3.80;99.90
52895;DHT22;38759;53.396;6.722;2024-03-08T09:55:12;3.80;99.90
52895;DHT22;38759;53.396;6.722;2024-03-08T09:57:39;3.90;99.90
52895;DHT22;38759;53.396;6.722;2024-03-08T10:00:06;3.90;99.90
52895;DHT22;38759;53.396;6.722;2024-03-08T10:02:50;4.00;99.90
52895;DHT22;38759;53.396;6.722;2024-03-08T10:05:19;4.20;99.90
52895;DHT22;38759;53.396;6.722;2024-03-08T10:07:45;4.20;99.90
52895;DHT22;38759;53.396;6.722;2024-03-08T10:10:11;4.30;99.90
52895;DHT22;38759;53.396;6.722;2024-03-08T10:12:38;4.40;99.90
52895;DHT22;38759;53.396;6.722;2024-03-08T10:15:08;4.50;99.90
52895;DHT22;38759;53.396;6.722;2024-03-08T10:17:35;4.60;99.90
52895;DHT22;38759;53.396;6.722;2024-03-08T10:20:01;4.70;99.90
52895;DHT22;38759;53.396;6.722;2024-03-08T10:22:27;4.80;99.90
52895;DHT22;38759;53.396;6.722;2024-03-08T10:24:55;4.90;99.90
52895;DHT22;38759;53.396;6.722;2024-03-08T10:29:50;5.20;99.90
52895;DHT22;38759;53.396;6.722;2024-03-08T10:32:17;5.30;99.90
52895;DHT22;38759;53.396;6.722;2024-03-08T10:34:43;5.50;99.90
52895;DHT22;38759;53.396;6.722;2024-03-08T10:37:14;5.70;99.90
52895;DHT22;38759;53.396;6.722;2024-03-08T10:39:47;5.80;99.90
52895;DHT22;38759;53.396;6.722;2024-03-08T10:42:20;6.00;99.90
52895;DHT22;38759;53.396;6.722;2024-03-08T10:47:49;6.20;99.90
52895;DHT22;38759;53.396;6.722;2024-03-08T10:50:24;6.40;99.90
52895;DHT22;38759;53.396;6.722;2024-03-08T10:52:53;6.50;99.90
52895;DHT22;38759;53.396;6.722;2024-03-08T10:55:24;6.70;99.90
52895;DHT22;38759;53.396;6.722;2024-03-08T10:57:52;6.90;99.90
52895;DHT22;38759;53.396;6.722;2024-03-08T11:00:19;7.00;99.90
52895;DHT22;38759;53.396;6.722;2024-03-08T11:02:52;7.20;99.90
52895;DHT22;38759;53.396;6.722;2024-03-08T11:05:38;7.40;99.90
52895;DHT22;38759;53.396;6.722;2024-03-08T11:08:20;7.50;99.90
52895;DHT22;38759;53.396;6.722;2024-03-08T11:10:55;7.70;99.90
52895;DHT22;38759;53.396;6.722;2024-03-08T11:13:41;7.90;99.90
52895;DHT22;38759;53.396;6.722;2024-03-08T11:16:11;8.10;99.90
52895;DHT22;38759;53.396;6.722;2024-03-08T11:18:38;8.30;99.90
52895;DHT22;38759;53.396;6.722;2024-03-08T11:21:08;8.30;99.90
52895;DHT22;38759;53.396;6.722;2024-03-08T11:23:38;8.60;99.90
52895;DHT22;38759;53.396;6.722;2024-03-08T11:26:18;8.60;99.90
52895;DHT22;38759;53.396;6.722;2024-03-08T11:28:44;8.70;99.90
52895;DHT22;38759;53.396;6.722;2024-03-08T11:33:36;8.90;99.90
52895;DHT22;38759;53.396;6.722;2024-03-08T11:36:11;9.10;99.90
52895;DHT22;38759;53.396;6.722;2024-03-08T11:38:43;9.30;99.90
52895;DHT22;38759;53.396;6.722;2024-03-08T11:41:10;9.30;99.90
52895;DHT22;38759;53.396;6.722;2024-03-08T11:43:42;9.50;99.90
52895;DHT22;38759;53.396;6.722;2024-03-08T11:46:09;9.50;99.90
52895;DHT22;38759;53.396;6.722;2024-03-08T11:48:35;9.60;99.90
52895;DHT22;38759;53.396;6.722;2024-03-08T11:51:04;9.70;99.90
52895;DHT22;38759;53.396;6.722;2024-03-08T11:53:30;9.80;99.90
52895;DHT22;38759;53.396;6.722;2024-03-08T11:56:13;9.90;99.90
52895;DHT22;38759;53.396;6.722;2024-03-08T11:58:39;10.10;99.90
52895;DHT22;38759;53.396;6.722;2024-03-08T12:01:09;10.20;99.90
52895;DHT22;38759;53.396;6.722;2024-03-08T12:03:41;10.30;99.90
52895;DHT22;38759;53.396;6.722;2024-03-08T12:06:10;10.50;99.90
52895;DHT22;38759;53.396;6.722;2024-03-08T12:08:36;10.60;99.90
52895;DHT22;38759;53.396;6.722;2024-03-08T12:11:04;10.70;99.90
52895;DHT22;38759;53.396;6.722;2024-03-08T12:13:34;10.80;99.90
52895;DHT22;38759;53.396;6.722;2024-03-08T12:16:03;10.80;99.90
52895;DHT22;38759;53.396;6.722;2024-03-08T12:18:37;10.90;99.90
52895;DHT22;38759;53.396;6.722;2024-03-08T12:21:13;11.00;99.90
52895;DHT22;38759;53.396;6.722;2024-03-08T12:23:44;11.10;99.90
52895;DHT22;38759;53.396;6.722;2024-03-08T12:26:18;11.20;99.90
52895;DHT22;38759;53.396;6.722;2024-03-08T12:28:45;11.30;99.90
52895;DHT22;38759;53.396;6.722;2024-03-08T12:31:18;11.40;99.90
52895;DHT22;38759;53.396;6.722;2024-03-08T12:33:50;11.40;99.90
52895;DHT22;38759;53.396;6.722;2024-03-08T12:36:16;11.40;99.90
52895;DHT22;38759;53.396;6.722;2024-03-08T12:38:49;11.50;99.90
52895;DHT22;38759;53.396;6.722;2024-03-08T12:41:19;11.50;99.90
52895;DHT22;38759;53.396;6.722;2024-03-08T12:43:45;11.60;99.90
52895;DHT22;38759;53.396;6.722;2024-03-08T12:46:17;11.60;99.90
52895;DHT22;38759;53.396;6.722;2024-03-08T12:48:46;11.80;99.90
52895;DHT22;38759;53.396;6.722;2024-03-08T12:51:16;11.80;99.90
52895;DHT22;38759;53.396;6.722;2024-03-08T12:53:45;11.90;99.90
52895;DHT22;38759;53.396;6.722;2024-03-08T12:56:31;11.90;99.90
52895;DHT22;38759;53.396;6.722;2024-03-08T12:58:59;12.00;99.90
52895;DHT22;38759;53.396;6.722;2024-03-08T13:01:26;12.00;99.90
52895;DHT22;38759;53.396;6.722;2024-03-08T13:03:53;12.10;99.90
52895;DHT22;38759;53.396;6.722;2024-03-08T13:06:22;12.10;99.90
52895;DHT22;38759;53.396;6.722;2024-03-08T13:08:50;12.10;99.90
52895;DHT22;38759;53.396;6.722;2024-03-08T13:11:21;12.20;99.90
52895;DHT22;38759;53.396;6.722;2024-03-08T13:13:46;12.20;99.90
52895;DHT22;38759;53.396;6.722;2024-03-08T13:16:13;12.30;99.90
52895;DHT22;38759;53.396;6.722;2024-03-08T13:18:43;12.40;99.90
52895;DHT22;38759;53.396;6.722;2024-03-08T13:21:09;12.30;99.90
52895;DHT22;38759;53.396;6.722;2024-03-08T13:23:37;12.30;99.90
52895;DHT22;38759;53.396;6.722;2024-03-08T13:26:10;12.30;99.90
52895;DHT22;38759;53.396;6.722;2024-03-08T13:28:51;12.30;99.90
52895;DHT22;38759;53.396;6.722;2024-03-08T13:31:22;12.40;99.90
52895;DHT22;38759;53.396;6.722;2024-03-08T13:33:48;12.40;99.90
52895;DHT22;38759;53.396;6.722;2024-03-08T13:36:14;12.50;99.90
52895;DHT22;38759;53.396;6.722;2024-03-08T13:38:44;12.50;99.90
52895;DHT22;38759;53.396;6.722;2024-03-08T13:41:14;12.50;99.90
52895;DHT22;38759;53.396;6.722;2024-03-08T13:43:41;12.60;99.90
52895;DHT22;38759;53.396;6.722;2024-03-08T13:46:07;12.60;99.90
52895;DHT22;38759;53.396;6.722;2024-03-08T13:48:33;12.60;99.90
52895;DHT22;38759;53.396;6.722;2024-03-08T13:50:59;12.60;99.90
52895;DHT22;38759;53.396;6.722;2024-03-08T13:53:26;12.60;99.90
52895;DHT22;38759;53.396;6.722;2024-03-08T13:55:52;12.60;99.90
52895;DHT22;38759;53.396;6.722;2024-03-08T13:58:17;12.70;99.90
52895;DHT22;38759;53.396;6.722;2024-03-08T14:00:44;12.70;99.90
52895;DHT22;38759;53.396;6.722;2024-03-08T14:03:11;12.60;99.90
52895;DHT22;38759;53.396;6.722;2024-03-08T14:05:41;12.30;99.90
52895;DHT22;38759;53.396;6.722;2024-03-08T14:08:11;12.20;99.90
52895;DHT22;38759;53.396;6.722;2024-03-08T14:10:38;12.10;99.90
52895;DHT22;38759;53.396;6.722;2024-03-08T14:13:04;12.00;99.90
52895;DHT22;38759;53.396;6.722;2024-03-08T14:15:37;11.90;99.90
52895;DHT22;38759;53.396;6.722;2024-03-08T14:18:07;11.80;99.90
52895;DHT22;38759;53.396;6.722;2024-03-08T14:20:33;11.70;99.90
52895;DHT22;38759;53.396;6.722;2024-03-08T14:22:58;11.60;99.90
52895;DHT22;38759;53.396;6.722;2024-03-08T14:25:24;11.60;99.90
52895;DHT22;38759;53.396;6.722;2024-03-08T14:27:51;11.50;99.90
52895;DHT22;38759;53.396;6.722;2024-03-08T14:30:23;11.40;99.90
52895;DHT22;38759;53.396;6.722;2024-03-08T14:33:04;11.30;99.90
52895;DHT22;38759;53.396;6.722;2024-03-08T14:35:38;11.30;99.90
52895;DHT22;38759;53.396;6.722;2024-03-08T14:38:04;11.20;99.90
52895;DHT22;38759;53.396;6.722;2024-03-08T14:40:33;11.20;99.90
52895;DHT22;38759;53.396;6.722;2024-03-08T14:42:59;11.00;99.90
52895;DHT22;38759;53.396;6.722;2024-03-08T14:45:26;11.00;99.90
52895;DHT22;38759;53.396;6.722;2024-03-08T14:47:52;11.00;99.90
52895;DHT22;38759;53.396;6.722;2024-03-08T14:50:22;10.90;99.90
52895;DHT22;38759;53.396;6.722;2024-03-08T14:52:49;10.90;99.90
52895;DHT22;38759;53.396;6.722;2024-03-08T14:55:16;10.90;99.90
52895;DHT22;38759;53.396;6.722;2024-03-08T14:57:42;10.80;99.90
52895;DHT22;38759;53.396;6.722;2024-03-08T15:00:11;10.80;99.90
52895;DHT22;38759;53.396;6.722;2024-03-08T15:02:59;10.80;99.90
52895;DHT22;38759;53.396;6.722;2024-03-08T15:05:25;10.80;99.90
52895;DHT22;38759;53.396;6.722;2024-03-08T15:07:54;10.70;99.90
52895;DHT22;38759;53.396;6.722;2024-03-08T15:10:21;10.60;99.90
52895;DHT22;38759;53.396;6.722;2024-03-08T15:12:50;10.60;99.90
52895;DHT22;38759;53.396;6.722;2024-03-08T15:15:20;10.40;99.90
52895;DHT22;38759;53.396;6.722;2024-03-08T15:17:48;10.30;99.90
52895;DHT22;38759;53.396;6.722;2024-03-08T15:20:14;10.20;99.90
52895;DHT22;38759;53.396;6.722;2024-03-08T15:23:00;10.10;99.90
52895;DHT22;38759;53.396;6.722;2024-03-08T15:25:26;10.00;99.90
52895;DHT22;38759;53.396;6.722;2024-03-08T15:27:52;9.90;99.90
52895;DHT22;38759;53.396;6.722;2024-03-08T15:30:19;9.90;99.90
52895;DHT22;38759;53.396;6.722;2024-03-08T15:32:48;9.80;99.90
52895;DHT22;38759;53.396;6.722;2024-03-08T15:35:16;9.80;99.90
52895;DHT22;38759;53.396;6.722;2024-03-08T15:37:43;9.70;99.90
52895;DHT22;38759;53.396;6.722;2024-03-08T15:40:14;9.60;99.90
52895;DHT22;38759;53.396;6.722;2024-03-08T15:43:00;9.60;99.90
52895;DHT22;38759;53.396;6.722;2024-03-08T15:45:26;9.50;99.90
52895;DHT22;38759;53.396;6.722;2024-03-08T15:47:52;9.50;99.90
52895;DHT22;38759;53.396;6.722;2024-03-08T15:50:18;9.40;99.90
52895;DHT22;38759;53.396;6.722;2024-03-08T15:52:46;9.30;99.90
52895;DHT22;38759;53.396;6.722;2024-03-08T15:55:18;9.30;99.90